sensor_id;sensor_type;location;lat;lon;timestamp;temperature;humidity
65058;HTU21D;51644;51.068;5.860;2022-12-07T00:00:15;6.34;87.75
65058;HTU21D;51644;51.068;5.860;2022-12-07T00:01:17;6.29;87.77
65058;HTU21D;51644;51.068;5.860;2022-12-07T00:02:16;6.25;87.84
65058;HTU21D;51644;51.068;5.860;2022-12-07T00:03:15;6.19;87.87
65058;HTU21D;51644;51.068;5.860;2022-12-07T00:04:22;6.16;88.23
65058;HTU21D;51644;51.068;5.860;2022-12-07T00:05:20;6.16;88.30
65058;HTU21D;51644;51.068;5.860;2022-12-07T00:06:20;6.13;88.26
65058;HTU21D;51644;51.068;5.860;2022-12-07T00:07:18;6.09;88.31
65058;HTU21D;51644;51.068;5.860;2022-12-07T00:08:17;6.09;88.44
65058;HTU21D;51644;51.068;5.860;2022-12-07T00:09:19;6.07;88.44
65058;HTU21D;51644;51.068;5.860;2022-12-07T00:10:18;6.06;88.44
65058;HTU21D;51644;51.068;5.860;2022-12-07T00:11:21;6.01;88.43
65058;HTU21D;51644;51.068;5.860;2022-12-07T00:12:20;6.00;88.60
65058;HTU21D;51644;51.068;5.860;2022-12-07T00:13:19;6.00;88.58
65058;HTU21D;51644;51.068;5.860;2022-12-07T00:14:18;5.97;88.64
65058;HTU21D;51644;51.068;5.860;2022-12-07T00:15:17;5.95;88.54
65058;HTU21D;51644;51.068;5.860;2022-12-07T00:16:19;5.94;88.72
65058;HTU21D;51644;51.068;5.860;2022-12-07T00:17:18;5.89;88.78
65058;HTU21D;51644;51.068;5.860;2022-12-07T00:18:17;5.90;88.88
65058;HTU21D;51644;51.068;5.860;2022-12-07T00:19:15;5.89;88.91
65058;HTU21D;51644;51.068;5.860;2022-12-07T00:20:14;5.90;88.90
65058;HTU21D;51644;51.068;5.860;2022-12-07T00:22:13;5.87;88.96
65058;HTU21D;51644;51.068;5.860;2022-12-07T00:23:11;5.89;88.99
65058;HTU21D;51644;51.068;5.860;2022-12-07T00:24:10;5.84;88.98
65058;HTU21D;51644;51.068;5.860;2022-12-07T00:25:09;5.84;89.02
65058;HTU21D;51644;51.068;5.860;2022-12-07T00:27:09;5.82;89.14
65058;HTU21D;51644;51.068;5.860;2022-12-07T00:28:08;5.81;89.15
65058;HTU21D;51644;51.068;5.860;2022-12-07T00:29:16;5.81;89.20
65058;HTU21D;51644;51.068;5.860;2022-12-07T00:30:15;5.81;89.17
65058;HTU21D;51644;51.068;5.860;2022-12-07T00:31:15;5.81;89.21
65058;HTU21D;51644;51.068;5.860;2022-12-07T00:32:14;5.80;89.28
65058;HTU21D;51644;51.068;5.860;2022-12-07T00:33:13;5.76;89.34
65058;HTU21D;51644;51.068;5.860;2022-12-07T00:34:14;5.77;89.50
65058;HTU21D;51644;51.068;5.860;2022-12-07T00:35:15;5.80;89.54
65058;HTU21D;51644;51.068;5.860;2022-12-07T00:36:17;5.80;89.59
65058;HTU21D;51644;51.068;5.860;2022-12-07T00:37:15;5.81;89.57
65058;HTU21D;51644;51.068;5.860;2022-12-07T00:38:14;5.79;89.66
65058;HTU21D;51644;51.068;5.860;2022-12-07T00:39:12;5.82;89.70
65058;HTU21D;51644;51.068;5.860;2022-12-07T00:40:31;5.83;89.62
65058;HTU21D;51644;51.068;5.860;2022-12-07T00:41:30;5.81;89.68
65058;HTU21D;51644;51.068;5.860;2022-12-07T00:42:29;5.81;89.69
65058;HTU21D;51644;51.068;5.860;2022-12-07T00:43:28;5.80;89.81
65058;HTU21D;51644;51.068;5.860;2022-12-07T00:44:26;5.83;89.76
65058;HTU21D;51644;51.068;5.860;2022-12-07T00:45:25;5.82;89.77
65058;HTU21D;51644;51.068;5.860;2022-12-07T00:46:24;5.83;89.74
65058;HTU21D;51644;51.068;5.860;2022-12-07T00:47:23;5.84;89.70
65058;HTU21D;51644;51.068;5.860;2022-12-07T00:48:22;5.83;89.72
65058;HTU21D;51644;51.068;5.860;2022-12-07T00:49:21;5.85;89.78
65058;HTU21D;51644;51.068;5.860;2022-12-07T00:50:33;5.87;89.72
65058;HTU21D;51644;51.068;5.860;2022-12-07T00:51:32;5.87;89.75
65058;HTU21D;51644;51.068;5.860;2022-12-07T00:52:30;5.90;89.70
65058;HTU21D;51644;51.068;5.860;2022-12-07T00:53:29;5.92;89.65
65058;HTU21D;51644;51.068;5.860;2022-12-07T00:54:27;5.91;89.57
65058;HTU21D;51644;51.068;5.860;2022-12-07T00:55:26;5.92;89.61
65058;HTU21D;51644;51.068;5.860;2022-12-07T00:56:26;5.92;89.54
65058;HTU21D;51644;51.068;5.860;2022-12-07T00:57:29;5.93;89.73
65058;HTU21D;51644;51.068;5.860;2022-12-07T00:58:28;5.96;89.66
65058;HTU21D;51644;51.068;5.860;2022-12-07T00:59:27;5.99;89.54
65058;HTU21D;51644;51.068;5.860;2022-12-07T01:00:25;5.98;89.50
65058;HTU21D;51644;51.068;5.860;2022-12-07T01:01:27;6.00;89.48
65058;HTU21D;51644;51.068;5.860;2022-12-07T01:02:25;6.04;89.38
65058;HTU21D;51644;51.068;5.860;2022-12-07T01:03:24;6.05;89.32
65058;HTU21D;51644;51.068;5.860;2022-12-07T01:04:23;6.06;89.31
65058;HTU21D;51644;51.068;5.860;2022-12-07T01:05:21;6.09;89.32
65058;HTU21D;51644;51.068;5.860;2022-12-07T01:06:22;6.11;89.15
65058;HTU21D;51644;51.068;5.860;2022-12-07T01:07:20;6.13;89.11
65058;HTU21D;51644;51.068;5.860;2022-12-07T01:08:20;6.14;89.05
65058;HTU21D;51644;51.068;5.860;2022-12-07T01:09:19;6.12;89.02
65058;HTU21D;51644;51.068;5.860;2022-12-07T01:10:17;6.11;89.01
65058;HTU21D;51644;51.068;5.860;2022-12-07T01:11:20;6.09;88.92
65058;HTU21D;51644;51.068;5.860;2022-12-07T01:12:18;6.04;88.86
65058;HTU21D;51644;51.068;5.860;2022-12-07T01:13:17;6.01;89.04
65058;HTU21D;51644;51.068;5.860;2022-12-07T01:14:15;5.96;89.05
65058;HTU21D;51644;51.068;5.860;2022-12-07T01:15:14;5.94;89.15
65058;HTU21D;51644;51.068;5.860;2022-12-07T01:16:15;5.92;89.21
65058;HTU21D;51644;51.068;5.860;2022-12-07T01:17:14;5.87;89.35
65058;HTU21D;51644;51.068;5.860;2022-12-07T01:18:12;5.84;89.30
65058;HTU21D;51644;51.068;5.860;2022-12-07T01:19:11;5.82;89.45
65058;HTU21D;51644;51.068;5.860;2022-12-07T01:20:10;5.80;89.55
65058;HTU21D;51644;51.068;5.860;2022-12-07T01:21:15;5.79;89.62
65058;HTU21D;51644;51.068;5.860;2022-12-07T01:22:14;5.78;89.70
65058;HTU21D;51644;51.068;5.860;2022-12-07T01:23:13;5.74;89.77
65058;HTU21D;51644;51.068;5.860;2022-12-07T01:24:12;5.74;90.08
65058;HTU21D;51644;51.068;5.860;2022-12-07T01:25:11;5.76;90.09
65058;HTU21D;51644;51.068;5.860;2022-12-07T01:26:13;5.80;90.06
65058;HTU21D;51644;51.068;5.860;2022-12-07T01:27:13;5.78;90.21
65058;HTU21D;51644;51.068;5.860;2022-12-07T01:28:11;5.83;90.07
65058;HTU21D;51644;51.068;5.860;2022-12-07T01:29:10;5.84;90.04
65058;HTU21D;51644;51.068;5.860;2022-12-07T01:30:10;5.87;89.99
65058;HTU21D;51644;51.068;5.860;2022-12-07T01:31:14;5.91;89.92
65058;HTU21D;51644;51.068;5.860;2022-12-07T01:32:14;5.93;89.89
65058;HTU21D;51644;51.068;5.860;2022-12-07T01:33:15;5.93;89.85
65058;HTU21D;51644;51.068;5.860;2022-12-07T01:34:16;5.95;89.79
65058;HTU21D;51644;51.068;5.860;2022-12-07T01:35:14;5.94;89.71
65058;HTU21D;51644;51.068;5.860;2022-12-07T01:36:22;5.97;89.83
65058;HTU21D;51644;51.068;5.860;2022-12-07T01:37:22;5.96;89.75
65058;HTU21D;51644;51.068;5.860;2022-12-07T01:38:20;5.97;89.83
65058;HTU21D;51644;51.068;5.860;2022-12-07T01:39:25;5.99;89.78
65058;HTU21D;51644;51.068;5.860;2022-12-07T01:40:23;6.00;89.73
65058;HTU21D;51644;51.068;5.860;2022-12-07T01:41:24;6.00;89.67
65058;HTU21D;51644;51.068;5.860;2022-12-07T01:42:23;6.01;89.69
65058;HTU21D;51644;51.068;5.860;2022-12-07T01:43:24;5.99;89.56
65058;HTU21D;51644;51.068;5.860;2022-12-07T01:44:29;5.99;89.76
65058;HTU21D;51644;51.068;5.860;2022-12-07T01:45:39;6.02;89.69
65058;HTU21D;51644;51.068;5.860;2022-12-07T01:46:39;5.99;89.68
65058;HTU21D;51644;51.068;5.860;2022-12-07T01:47:38;6.02;89.71
65058;HTU21D;51644;51.068;5.860;2022-12-07T01:48:42;6.00;89.66
65058;HTU21D;51644;51.068;5.860;2022-12-07T01:49:48;6.02;89.63
65058;HTU21D;51644;51.068;5.860;2022-12-07T01:50:50;6.04;89.60
65058;HTU21D;51644;51.068;5.860;2022-12-07T01:51:54;6.02;89.50
65058;HTU21D;51644;51.068;5.860;2022-12-07T01:52:57;6.02;89.64
65058;HTU21D;51644;51.068;5.860;2022-12-07T01:53:58;6.00;89.70
65058;HTU21D;51644;51.068;5.860;2022-12-07T01:55:07;6.01;89.73
65058;HTU21D;51644;51.068;5.860;2022-12-07T01:56:11;6.01;89.74
65058;HTU21D;51644;51.068;5.860;2022-12-07T01:57:15;6.02;89.73
65058;HTU21D;51644;51.068;5.860;2022-12-07T01:58:16;6.01;89.71
65058;HTU21D;51644;51.068;5.860;2022-12-07T01:59:16;5.99;89.76
65058;HTU21D;51644;51.068;5.860;2022-12-07T02:00:16;6.00;89.69
65058;HTU21D;51644;51.068;5.860;2022-12-07T02:01:15;6.00;89.85
65058;HTU21D;51644;51.068;5.860;2022-12-07T02:02:20;6.02;89.71
65058;HTU21D;51644;51.068;5.860;2022-12-07T02:04:02;6.01;89.67
65058;HTU21D;51644;51.068;5.860;2022-12-07T02:04:43;5.99;89.76
65058;HTU21D;51644;51.068;5.860;2022-12-07T02:05:43;5.99;89.72
65058;HTU21D;51644;51.068;5.860;2022-12-07T02:06:44;5.96;89.65
65058;HTU21D;51644;51.068;5.860;2022-12-07T02:07:47;5.98;89.90
65058;HTU21D;51644;51.068;5.860;2022-12-07T02:08:46;5.95;90.02
65058;HTU21D;51644;51.068;5.860;2022-12-07T02:09:45;5.98;89.96
65058;HTU21D;51644;51.068;5.860;2022-12-07T02:10:44;5.96;89.93
65058;HTU21D;51644;51.068;5.860;2022-12-07T02:11:42;5.98;89.99
65058;HTU21D;51644;51.068;5.860;2022-12-07T02:12:43;5.98;89.99
65058;HTU21D;51644;51.068;5.860;2022-12-07T02:13:45;5.99;89.92
65058;HTU21D;51644;51.068;5.860;2022-12-07T02:14:44;5.99;89.98
65058;HTU21D;51644;51.068;5.860;2022-12-07T02:19:35;5.99;89.83
65058;HTU21D;51644;51.068;5.860;2022-12-07T02:20:57;5.98;89.87
65058;HTU21D;51644;51.068;5.860;2022-12-07T02:24:34;5.89;89.97
65058;HTU21D;51644;51.068;5.860;2022-12-07T02:30:17;5.85;90.06
65058;HTU21D;51644;51.068;5.860;2022-12-07T02:31:21;5.86;90.12
65058;HTU21D;51644;51.068;5.860;2022-12-07T02:32:37;5.87;90.17
65058;HTU21D;51644;51.068;5.860;2022-12-07T02:33:48;5.90;90.18
65058;HTU21D;51644;51.068;5.860;2022-12-07T02:34:59;5.91;90.14
65058;HTU21D;51644;51.068;5.860;2022-12-07T02:36:08;5.92;90.12
65058;HTU21D;51644;51.068;5.860;2022-12-07T02:38:37;5.94;90.00
65058;HTU21D;51644;51.068;5.860;2022-12-07T02:39:53;5.96;90.03
65058;HTU21D;51644;51.068;5.860;2022-12-07T02:42:17;5.99;89.94
65058;HTU21D;51644;51.068;5.860;2022-12-07T02:43:26;6.00;89.88
65058;HTU21D;51644;51.068;5.860;2022-12-07T02:44:28;6.02;89.79
65058;HTU21D;51644;51.068;5.860;2022-12-07T02:45:31;6.02;89.71
65058;HTU21D;51644;51.068;5.860;2022-12-07T02:46:38;6.04;89.69
65058;HTU21D;51644;51.068;5.860;2022-12-07T02:47:37;6.06;89.64
65058;HTU21D;51644;51.068;5.860;2022-12-07T02:48:39;6.02;89.61
65058;HTU21D;51644;51.068;5.860;2022-12-07T02:49:56;6.05;89.56
65058;HTU21D;51644;51.068;5.860;2022-12-07T02:50:55;6.05;89.49
65058;HTU21D;51644;51.068;5.860;2022-12-07T02:51:54;6.06;89.54
65058;HTU21D;51644;51.068;5.860;2022-12-07T02:52:53;6.07;89.51
65058;HTU21D;51644;51.068;5.860;2022-12-07T02:53:51;6.08;89.49
65058;HTU21D;51644;51.068;5.860;2022-12-07T02:54:50;6.13;89.47
65058;HTU21D;51644;51.068;5.860;2022-12-07T02:55:49;6.12;89.40
65058;HTU21D;51644;51.068;5.860;2022-12-07T02:56:51;6.14;89.32
65058;HTU21D;51644;51.068;5.860;2022-12-07T02:58:20;6.12;89.28
65058;HTU21D;51644;51.068;5.860;2022-12-07T03:01:04;6.14;89.26
65058;HTU21D;51644;51.068;5.860;2022-12-07T03:03:24;6.16;89.15
65058;HTU21D;51644;51.068;5.860;2022-12-07T03:06:01;6.17;89.10
65058;HTU21D;51644;51.068;5.860;2022-12-07T03:10:11;6.16;88.98
65058;HTU21D;51644;51.068;5.860;2022-12-07T03:11:24;6.14;88.92
65058;HTU21D;51644;51.068;5.860;2022-12-07T03:12:48;6.11;88.98
65058;HTU21D;51644;51.068;5.860;2022-12-07T03:14:15;6.05;89.04
65058;HTU21D;51644;51.068;5.860;2022-12-07T03:15:29;6.01;89.12
65058;HTU21D;51644;51.068;5.860;2022-12-07T03:16:33;6.01;89.24
65058;HTU21D;51644;51.068;5.860;2022-12-07T03:17:37;5.97;89.32
65058;HTU21D;51644;51.068;5.860;2022-12-07T03:18:46;5.97;89.42
65058;HTU21D;51644;51.068;5.860;2022-12-07T03:19:49;5.97;89.49
65058;HTU21D;51644;51.068;5.860;2022-12-07T03:20:54;5.96;89.42
65058;HTU21D;51644;51.068;5.860;2022-12-07T03:21:59;5.95;89.44
65058;HTU21D;51644;51.068;5.860;2022-12-07T03:22:59;5.93;89.40
65058;HTU21D;51644;51.068;5.860;2022-12-07T03:24:03;5.93;89.44
65058;HTU21D;51644;51.068;5.860;2022-12-07T03:25:10;5.90;89.48
65058;HTU21D;51644;51.068;5.860;2022-12-07T03:26:13;5.87;89.50
65058;HTU21D;51644;51.068;5.860;2022-12-07T03:27:24;5.86;89.54
65058;HTU21D;51644;51.068;5.860;2022-12-07T03:28:29;5.85;89.53
65058;HTU21D;51644;51.068;5.860;2022-12-07T03:29:38;5.83;89.57
65058;HTU21D;51644;51.068;5.860;2022-12-07T03:30:57;5.82;89.62
65058;HTU21D;51644;51.068;5.860;2022-12-07T03:32:52;5.79;89.66
65058;HTU21D;51644;51.068;5.860;2022-12-07T03:33:36;5.81;89.75
65058;HTU21D;51644;51.068;5.860;2022-12-07T03:35:05;5.83;89.76
65058;HTU21D;51644;51.068;5.860;2022-12-07T03:36:26;5.86;89.76
65058;HTU21D;51644;51.068;5.860;2022-12-07T03:37:42;5.87;89.78
65058;HTU21D;51644;51.068;5.860;2022-12-07T03:38:57;5.91;89.71
65058;HTU21D;51644;51.068;5.860;2022-12-07T03:40:15;5.95;89.67
65058;HTU21D;51644;51.068;5.860;2022-12-07T03:41:22;5.98;89.61
65058;HTU21D;51644;51.068;5.860;2022-12-07T03:42:22;5.99;89.50
65058;HTU21D;51644;51.068;5.860;2022-12-07T03:43:21;6.02;89.48
65058;HTU21D;51644;51.068;5.860;2022-12-07T03:44:21;6.04;89.44
65058;HTU21D;51644;51.068;5.860;2022-12-07T03:45:28;6.08;89.35
65058;HTU21D;51644;51.068;5.860;2022-12-07T03:48:03;6.13;89.15
65058;HTU21D;51644;51.068;5.860;2022-12-07T03:49:25;6.12;89.11
65058;HTU21D;51644;51.068;5.860;2022-12-07T03:53:00;6.16;88.89
65058;HTU21D;51644;51.068;5.860;2022-12-07T03:54:11;6.16;88.92
65058;HTU21D;51644;51.068;5.860;2022-12-07T03:55:15;6.17;88.84
65058;HTU21D;51644;51.068;5.860;2022-12-07T03:56:15;6.16;88.80
65058;HTU21D;51644;51.068;5.860;2022-12-07T03:57:15;6.16;88.78
65058;HTU21D;51644;51.068;5.860;2022-12-07T03:58:19;6.10;88.79
65058;HTU21D;51644;51.068;5.860;2022-12-07T03:59:20;6.05;88.81
65058;HTU21D;51644;51.068;5.860;2022-12-07T04:00:19;6.01;88.96
65058;HTU21D;51644;51.068;5.860;2022-12-07T04:01:18;6.00;88.98
65058;HTU21D;51644;51.068;5.860;2022-12-07T04:02:17;5.94;89.05
65058;HTU21D;51644;51.068;5.860;2022-12-07T04:03:16;5.92;89.19
65058;HTU21D;51644;51.068;5.860;2022-12-07T04:04:18;5.89;89.26
65058;HTU21D;51644;51.068;5.860;2022-12-07T04:05:17;5.86;89.37
65058;HTU21D;51644;51.068;5.860;2022-12-07T04:06:16;5.83;89.39
65058;HTU21D;51644;51.068;5.860;2022-12-07T04:07:14;5.82;89.46
65058;HTU21D;51644;51.068;5.860;2022-12-07T04:08:13;5.80;89.54
65058;HTU21D;51644;51.068;5.860;2022-12-07T04:09:12;5.80;89.58
65058;HTU21D;51644;51.068;5.860;2022-12-07T04:10:12;5.77;89.62
65058;HTU21D;51644;51.068;5.860;2022-12-07T04:11:11;5.75;89.62
65058;HTU21D;51644;51.068;5.860;2022-12-07T04:12:09;5.71;89.64
65058;HTU21D;51644;51.068;5.860;2022-12-07T04:13:08;5.69;89.67
65058;HTU21D;51644;51.068;5.860;2022-12-07T04:14:07;5.65;89.76
65058;HTU21D;51644;51.068;5.860;2022-12-07T04:15:17;5.62;89.83
65058;HTU21D;51644;51.068;5.860;2022-12-07T04:16:16;5.57;89.84
65058;HTU21D;51644;51.068;5.860;2022-12-07T04:17:15;5.55;89.95
65058;HTU21D;51644;51.068;5.860;2022-12-07T04:18:13;5.54;90.01
65058;HTU21D;51644;51.068;5.860;2022-12-07T04:19:12;5.51;90.08
65058;HTU21D;51644;51.068;5.860;2022-12-07T04:20:11;5.50;90.15
65058;HTU21D;51644;51.068;5.860;2022-12-07T04:21:10;5.49;90.21
65058;HTU21D;51644;51.068;5.860;2022-12-07T04:22:08;5.47;90.24
65058;HTU21D;51644;51.068;5.860;2022-12-07T04:23:07;5.47;90.33
65058;HTU21D;51644;51.068;5.860;2022-12-07T04:24:06;5.46;90.39
65058;HTU21D;51644;51.068;5.860;2022-12-07T04:25:05;5.47;90.42
65058;HTU21D;51644;51.068;5.860;2022-12-07T04:26:04;5.48;90.43
65058;HTU21D;51644;51.068;5.860;2022-12-07T04:27:03;5.50;90.46
65058;HTU21D;51644;51.068;5.860;2022-12-07T04:28:01;5.52;90.47
65058;HTU21D;51644;51.068;5.860;2022-12-07T04:29:00;5.54;90.43
65058;HTU21D;51644;51.068;5.860;2022-12-07T04:29:58;5.57;90.39
65058;HTU21D;51644;51.068;5.860;2022-12-07T04:30:57;5.60;90.34
65058;HTU21D;51644;51.068;5.860;2022-12-07T04:31:58;5.62;90.22
65058;HTU21D;51644;51.068;5.860;2022-12-07T04:32:57;5.63;90.13
65058;HTU21D;51644;51.068;5.860;2022-12-07T04:33:56;5.64;90.08
65058;HTU21D;51644;51.068;5.860;2022-12-07T04:34:54;5.64;90.00
65058;HTU21D;51644;51.068;5.860;2022-12-07T04:35:53;5.63;89.97
65058;HTU21D;51644;51.068;5.860;2022-12-07T04:36:52;5.61;89.94
65058;HTU21D;51644;51.068;5.860;2022-12-07T04:37:50;5.59;89.93
65058;HTU21D;51644;51.068;5.860;2022-12-07T04:38:49;5.57;89.96
65058;HTU21D;51644;51.068;5.860;2022-12-07T04:39:47;5.53;89.95
65058;HTU21D;51644;51.068;5.860;2022-12-07T04:40:46;5.53;90.05
65058;HTU21D;51644;51.068;5.860;2022-12-07T04:41:44;5.54;90.09
65058;HTU21D;51644;51.068;5.860;2022-12-07T04:42:43;5.54;90.12
65058;HTU21D;51644;51.068;5.860;2022-12-07T04:43:42;5.54;90.13
65058;HTU21D;51644;51.068;5.860;2022-12-07T04:44:40;5.55;90.12
65058;HTU21D;51644;51.068;5.860;2022-12-07T04:45:39;5.53;90.07
65058;HTU21D;51644;51.068;5.860;2022-12-07T04:46:37;5.53;90.15
65058;HTU21D;51644;51.068;5.860;2022-12-07T04:47:36;5.55;90.12
65058;HTU21D;51644;51.068;5.860;2022-12-07T04:48:34;5.54;90.13
65058;HTU21D;51644;51.068;5.860;2022-12-07T04:49:33;5.55;90.12
65058;HTU21D;51644;51.068;5.860;2022-12-07T04:50:32;5.55;90.13
65058;HTU21D;51644;51.068;5.860;2022-12-07T04:51:30;5.59;90.13
65058;HTU21D;51644;51.068;5.860;2022-12-07T04:52:29;5.59;90.18
65058;HTU21D;51644;51.068;5.860;2022-12-07T04:53:27;5.62;90.09
65058;HTU21D;51644;51.068;5.860;2022-12-07T04:54:26;5.62;90.05
65058;HTU21D;51644;51.068;5.860;2022-12-07T04:55:24;5.65;89.95
65058;HTU21D;51644;51.068;5.860;2022-12-07T04:56:24;5.65;89.92
65058;HTU21D;51644;51.068;5.860;2022-12-07T04:57:22;5.67;89.92
65058;HTU21D;51644;51.068;5.860;2022-12-07T04:58:21;5.68;89.86
65058;HTU21D;51644;51.068;5.860;2022-12-07T04:59:19;5.68;89.78
65058;HTU21D;51644;51.068;5.860;2022-12-07T05:00:18;5.70;89.80
65058;HTU21D;51644;51.068;5.860;2022-12-07T05:01:18;5.72;89.75
65058;HTU21D;51644;51.068;5.860;2022-12-07T05:02:16;5.74;89.70
65058;HTU21D;51644;51.068;5.860;2022-12-07T05:03:15;5.72;89.67
65058;HTU21D;51644;51.068;5.860;2022-12-07T05:04:14;5.75;89.66
65058;HTU21D;51644;51.068;5.860;2022-12-07T05:05:14;5.75;89.57
65058;HTU21D;51644;51.068;5.860;2022-12-07T05:06:13;5.75;89.65
65058;HTU21D;51644;51.068;5.860;2022-12-07T05:07:12;5.76;89.65
65058;HTU21D;51644;51.068;5.860;2022-12-07T05:08:10;5.77;89.62
65058;HTU21D;51644;51.068;5.860;2022-12-07T05:09:09;5.77;89.67
65058;HTU21D;51644;51.068;5.860;2022-12-07T05:10:08;5.77;89.61
65058;HTU21D;51644;51.068;5.860;2022-12-07T05:11:08;5.78;89.69
65058;HTU21D;51644;51.068;5.860;2022-12-07T05:12:07;5.80;89.65
65058;HTU21D;51644;51.068;5.860;2022-12-07T05:13:05;5.81;89.66
65058;HTU21D;51644;51.068;5.860;2022-12-07T05:14:22;5.82;89.66
65058;HTU21D;51644;51.068;5.860;2022-12-07T05:15:21;5.83;89.61
65058;HTU21D;51644;51.068;5.860;2022-12-07T05:16:19;5.84;89.58
65058;HTU21D;51644;51.068;5.860;2022-12-07T05:17:18;5.84;89.62
65058;HTU21D;51644;51.068;5.860;2022-12-07T05:18:17;5.87;89.57
65058;HTU21D;51644;51.068;5.860;2022-12-07T05:19:16;5.87;89.54
65058;HTU21D;51644;51.068;5.860;2022-12-07T05:20:15;5.87;89.51
65058;HTU21D;51644;51.068;5.860;2022-12-07T05:21:13;5.89;89.56
65058;HTU21D;51644;51.068;5.860;2022-12-07T05:22:12;5.89;89.52
65058;HTU21D;51644;51.068;5.860;2022-12-07T05:23:11;5.90;89.47
65058;HTU21D;51644;51.068;5.860;2022-12-07T05:24:12;5.91;89.44
65058;HTU21D;51644;51.068;5.860;2022-12-07T05:25:11;5.90;89.44
65058;HTU21D;51644;51.068;5.860;2022-12-07T05:26:10;5.92;89.42
65058;HTU21D;51644;51.068;5.860;2022-12-07T05:27:09;5.94;89.38
65058;HTU21D;51644;51.068;5.860;2022-12-07T05:28:07;5.93;89.40
65058;HTU21D;51644;51.068;5.860;2022-12-07T05:29:06;5.96;89.37
65058;HTU21D;51644;51.068;5.860;2022-12-07T05:30:05;5.96;89.35
65058;HTU21D;51644;51.068;5.860;2022-12-07T05:31:04;5.98;89.34
65058;HTU21D;51644;51.068;5.860;2022-12-07T05:32:02;5.98;89.31
65058;HTU21D;51644;51.068;5.860;2022-12-07T05:33:02;5.99;89.26
65058;HTU21D;51644;51.068;5.860;2022-12-07T05:34:01;6.01;89.21
65058;HTU21D;51644;51.068;5.860;2022-12-07T05:34:59;6.04;89.15
65058;HTU21D;51644;51.068;5.860;2022-12-07T05:35:58;6.05;89.12
65058;HTU21D;51644;51.068;5.860;2022-12-07T05:36:56;6.06;89.12
65058;HTU21D;51644;51.068;5.860;2022-12-07T05:37:55;6.05;89.02
65058;HTU21D;51644;51.068;5.860;2022-12-07T05:38:55;6.06;89.06
65058;HTU21D;51644;51.068;5.860;2022-12-07T05:39:54;6.07;89.04
65058;HTU21D;51644;51.068;5.860;2022-12-07T05:40:52;6.07;88.99
65058;HTU21D;51644;51.068;5.860;2022-12-07T05:41:51;6.07;88.99
65058;HTU21D;51644;51.068;5.860;2022-12-07T05:43:08;6.09;88.94
65058;HTU21D;51644;51.068;5.860;2022-12-07T05:44:07;6.10;88.96
65058;HTU21D;51644;51.068;5.860;2022-12-07T05:45:07;6.09;88.89
65058;HTU21D;51644;51.068;5.860;2022-12-07T05:46:05;6.09;88.85
65058;HTU21D;51644;51.068;5.860;2022-12-07T05:47:04;6.09;88.80
65058;HTU21D;51644;51.068;5.860;2022-12-07T05:48:03;6.10;88.77
65058;HTU21D;51644;51.068;5.860;2022-12-07T05:49:02;6.09;88.76
65058;HTU21D;51644;51.068;5.860;2022-12-07T05:50:01;6.08;88.74
65058;HTU21D;51644;51.068;5.860;2022-12-07T05:51:00;6.06;88.76
65058;HTU21D;51644;51.068;5.860;2022-12-07T05:51:59;6.05;88.76
65058;HTU21D;51644;51.068;5.860;2022-12-07T05:52:57;6.05;88.80
65058;HTU21D;51644;51.068;5.860;2022-12-07T05:53:56;6.01;88.83
65058;HTU21D;51644;51.068;5.860;2022-12-07T05:54:54;6.00;88.87
65058;HTU21D;51644;51.068;5.860;2022-12-07T05:55:56;5.98;88.90
65058;HTU21D;51644;51.068;5.860;2022-12-07T05:56:55;5.98;88.97
65058;HTU21D;51644;51.068;5.860;2022-12-07T05:57:55;5.98;89.03
65058;HTU21D;51644;51.068;5.860;2022-12-07T05:59:12;5.98;89.07
65058;HTU21D;51644;51.068;5.860;2022-12-07T06:00:24;5.98;89.08
65058;HTU21D;51644;51.068;5.860;2022-12-07T06:01:22;5.99;89.10
65058;HTU21D;51644;51.068;5.860;2022-12-07T06:02:21;5.99;89.11
65058;HTU21D;51644;51.068;5.860;2022-12-07T06:03:19;5.99;89.10
65058;HTU21D;51644;51.068;5.860;2022-12-07T06:04:18;6.01;89.11
65058;HTU21D;51644;51.068;5.860;2022-12-07T06:05:17;6.01;89.07
65058;HTU21D;51644;51.068;5.860;2022-12-07T06:06:16;6.02;89.02
65058;HTU21D;51644;51.068;5.860;2022-12-07T06:07:16;6.04;89.01
65058;HTU21D;51644;51.068;5.860;2022-12-07T06:08:18;6.06;88.99
65058;HTU21D;51644;51.068;5.860;2022-12-07T06:09:17;6.06;88.92
65058;HTU21D;51644;51.068;5.860;2022-12-07T06:10:16;6.06;88.95
65058;HTU21D;51644;51.068;5.860;2022-12-07T06:11:15;6.06;88.87
65058;HTU21D;51644;51.068;5.860;2022-12-07T06:12:32;6.08;88.92
65058;HTU21D;51644;51.068;5.860;2022-12-07T06:13:34;6.09;88.91
65058;HTU21D;51644;51.068;5.860;2022-12-07T06:14:32;6.10;88.88
65058;HTU21D;51644;51.068;5.860;2022-12-07T06:15:31;6.11;88.86
65058;HTU21D;51644;51.068;5.860;2022-12-07T06:16:29;6.12;88.87
65058;HTU21D;51644;51.068;5.860;2022-12-07T06:17:28;6.13;88.84
65058;HTU21D;51644;51.068;5.860;2022-12-07T06:18:26;6.12;88.85
65058;HTU21D;51644;51.068;5.860;2022-12-07T06:19:25;6.12;88.86
65058;HTU21D;51644;51.068;5.860;2022-12-07T06:20:27;6.13;88.88
65058;HTU21D;51644;51.068;5.860;2022-12-07T06:21:26;6.15;88.89
65058;HTU21D;51644;51.068;5.860;2022-12-07T06:22:27;6.12;88.86
65058;HTU21D;51644;51.068;5.860;2022-12-07T06:23:26;6.12;88.82
65058;HTU21D;51644;51.068;5.860;2022-12-07T06:24:25;6.11;88.98
65058;HTU21D;51644;51.068;5.860;2022-12-07T06:25:23;6.10;88.89
65058;HTU21D;51644;51.068;5.860;2022-12-07T06:26:22;6.11;89.03
65058;HTU21D;51644;51.068;5.860;2022-12-07T06:27:21;6.11;89.04
65058;HTU21D;51644;51.068;5.860;2022-12-07T06:28:19;6.12;88.98
65058;HTU21D;51644;51.068;5.860;2022-12-07T06:29:18;6.11;88.97
65058;HTU21D;51644;51.068;5.860;2022-12-07T06:30:17;6.08;89.03
65058;HTU21D;51644;51.068;5.860;2022-12-07T06:31:15;6.08;89.09
65058;HTU21D;51644;51.068;5.860;2022-12-07T06:32:14;6.08;89.11
65058;HTU21D;51644;51.068;5.860;2022-12-07T06:33:13;6.09;89.11
65058;HTU21D;51644;51.068;5.860;2022-12-07T06:34:14;6.10;89.14
65058;HTU21D;51644;51.068;5.860;2022-12-07T06:35:13;6.09;89.15
65058;HTU21D;51644;51.068;5.860;2022-12-07T06:36:11;6.07;89.26
65058;HTU21D;51644;51.068;5.860;2022-12-07T06:37:10;6.07;89.25
65058;HTU21D;51644;51.068;5.860;2022-12-07T06:38:08;6.08;89.19
65058;HTU21D;51644;51.068;5.860;2022-12-07T06:39:08;6.05;89.16
65058;HTU21D;51644;51.068;5.860;2022-12-07T06:40:07;6.09;89.25
65058;HTU21D;51644;51.068;5.860;2022-12-07T06:41:06;6.10;89.28
65058;HTU21D;51644;51.068;5.860;2022-12-07T06:42:05;6.09;89.26
65058;HTU21D;51644;51.068;5.860;2022-12-07T06:43:03;6.09;89.24
65058;HTU21D;51644;51.068;5.860;2022-12-07T06:44:03;6.10;89.21
65058;HTU21D;51644;51.068;5.860;2022-12-07T06:45:02;6.09;89.21
65058;HTU21D;51644;51.068;5.860;2022-12-07T06:46:01;6.08;89.23
65058;HTU21D;51644;51.068;5.860;2022-12-07T06:46:59;6.08;89.21
65058;HTU21D;51644;51.068;5.860;2022-12-07T06:47:58;6.07;89.26
65058;HTU21D;51644;51.068;5.860;2022-12-07T06:48:57;6.05;89.25
65058;HTU21D;51644;51.068;5.860;2022-12-07T06:49:55;6.06;89.28
65058;HTU21D;51644;51.068;5.860;2022-12-07T06:50:54;6.06;89.34
65058;HTU21D;51644;51.068;5.860;2022-12-07T06:51:52;6.07;89.34
65058;HTU21D;51644;51.068;5.860;2022-12-07T06:52:52;6.09;89.34
65058;HTU21D;51644;51.068;5.860;2022-12-07T06:53:50;6.09;89.35
65058;HTU21D;51644;51.068;5.860;2022-12-07T06:54:49;6.11;89.23